Time,TemperatureF,DewpointF,PressureIn,WindDirection,WindDirectionDegrees,WindSpeedMPH,WindSpeedGustMPH,Humidity,HourlyPrecipIn,Conditions,Clouds,dailyrainin,SoftwareType,DateUTC
2013-03-30 00:00:00,48.7,33.7,30.15,WSW,253,0.0,3.0,56,0.00,,---,0.00,VWS V14.01,2013-03-30 04:00:00,
2013-03-30 00:03:00,48.5,34.0,30.15,WSW,253,0.0,1.0,57,0.00,,---,0.00,VWS V14.01,2013-03-30 04:03:00,
2013-03-30 00:08:00,48.4,33.9,30.15,WSW,253,0.0,1.0,57,0.00,,---,0.00,VWS V14.01,2013-03-30 04:08:00,
2013-03-30 00:13:00,48.0,33.5,30.15,WSW,253,0.0,0.0,57,0.00,,---,0.00,VWS V14.01,2013-03-30 04:13:00,
2013-03-30 00:19:00,47.4,33.8,30.15,WSW,253,0.0,0.0,59,0.00,,---,0.00,VWS V14.01,2013-03-30 04:19:00,
2013-03-30 00:24:00,47.2,34.0,30.15,WSW,253,0.0,0.0,60,0.00,,---,0.00,VWS V14.01,2013-03-30 04:24:00,
2013-03-30 00:29:00,46.8,33.7,30.15,WSW,253,0.0,0.0,60,0.00,,---,0.00,VWS V14.01,2013-03-30 04:29:00,
2013-03-30 00:34:00,46.5,33.8,30.15,WSW,253,0.0,0.0,61,0.00,,---,0.00,VWS V14.01,2013-03-30 04:34:00,
2013-03-30 00:39:00,46.0,33.7,30.15,WSW,253,0.0,0.0,62,0.00,,---,0.00,VWS V14.01,2013-03-30 04:39:00,
2013-03-30 00:44:00,45.9,33.6,30.15,WSW,253,0.0,1.0,62,0.00,,---,0.00,VWS V14.01,2013-03-30 04:44:00,
2013-03-30 00:49:00,45.8,33.5,30.15,WSW,253,0.0,1.0,62,0.00,,---,0.00,VWS V14.01,2013-03-30 04:49:00,
2013-03-30 00:54:00,45.5,34.0,30.15,WSW,253,0.0,0.0,64,0.00,,---,0.00,VWS V14.01,2013-03-30 04:54:00,
2013-03-30 00:59:00,44.9,34.2,30.14,WSW,253,0.0,0.0,66,0.00,,---,0.00,VWS V14.01,2013-03-30 04:59:00,
2013-03-30 01:04:00,44.3,35.5,30.14,WSW,253,0.0,0.0,71,0.00,,---,0.00,VWS V14.01,2013-03-30 05:04:00,
2013-03-30 01:09:00,44.1,35.7,30.14,WSW,253,0.0,0.0,72,0.00,,---,0.00,VWS V14.01,2013-03-30 05:09:00,
2013-03-30 01:14:00,43.5,35.4,30.14,WSW,253,0.0,0.0,73,0.00,,---,0.00,VWS V14.01,2013-03-30 05:14:00,
2013-03-30 01:19:00,43.0,35.0,30.14,WSW,253,0.0,0.0,73,0.00,,---,0.00,VWS V14.01,2013-03-30 05:19:00,
2013-03-30 01:24:00,43.1,34.7,30.14,WSW,253,0.0,0.0,72,0.00,,---,0.00,VWS V14.01,2013-03-30 05:24:00,
2013-03-30 01:29:00,42.9,34.2,30.14,WSW,253,0.0,0.0,71,0.00,,---,0.00,VWS V14.01,2013-03-30 05:29:00,
2013-03-30 01:34:00,42.7,34.0,30.14,WSW,253,0.0,0.0,71,0.00,,---,0.00,VWS V14.01,2013-03-30 05:34:00,
2013-03-30 01:39:00,42.7,34.0,30.14,WSW,253,0.0,0.0,71,0.00,,---,0.00,VWS V14.01,2013-03-30 05:39:00,
2013-03-30 01:44:00,42.8,34.1,30.14,WSW,253,0.0,0.0,71,0.00,,---,0.00,VWS V14.01,2013-03-30 05:44:00,
2013-03-30 01:50:00,42.7,34.0,30.14,WSW,253,0.0,0.0,71,0.00,,---,0.00,VWS V14.01,2013-03-30 05:50:00,
2013-03-30 01:55:00,42.6,33.5,30.14,WSW,253,0.0,0.0,70,0.00,,---,0.00,VWS V14.01,2013-03-30 05:55:00,
2013-03-30 02:00:00,42.5,33.4,30.13,WSW,253,0.0,0.0,70,0.00,,---,0.00,VWS V14.01,2013-03-30 06:00:00,
2013-03-30 02:05:00,42.4,33.0,30.13,WSW,253,1.0,1.0,69,0.00,,---,0.00,VWS V14.01,2013-03-30 06:05:00,
2013-03-30 02:10:00,41.9,33.5,30.13,WSW,253,0.0,0.0,72,0.00,,---,0.00,VWS V14.01,2013-03-30 06:10:00,
2013-03-30 02:15:00,41.8,34.8,30.13,WSW,253,0.0,2.0,76,0.00,,---,0.00,VWS V14.01,2013-03-30 06:15:00,
2013-03-30 02:20:00,41.3,34.3,30.13,WSW,253,0.0,0.0,76,0.00,,---,0.00,VWS V14.01,2013-03-30 06:20:00,
2013-03-30 02:25:00,41.0,33.4,30.13,WSW,253,0.0,1.0,74,0.00,,---,0.00,VWS V14.01,2013-03-30 06:25:00,
2013-03-30 02:30:00,41.1,32.8,30.12,WSW,253,0.0,0.0,72,0.00,,---,0.00,VWS V14.01,2013-03-30 06:30:00,
2013-03-30 02:35:00,41.3,31.9,30.12,WSW,253,0.0,3.0,69,0.00,,---,0.00,VWS V14.01,2013-03-30 06:35:00,
2013-03-30 02:40:00,42.0,31.9,30.12,WSW,253,0.0,0.0,67,0.00,,---,0.00,VWS V14.01,2013-03-30 06:40:00,
2013-03-30 02:45:00,42.2,32.0,30.13,WSW,253,0.0,1.0,67,0.00,,---,0.00,VWS V14.01,2013-03-30 06:45:00,
2013-03-30 02:50:00,41.9,32.1,30.13,WSW,253,1.0,1.0,68,0.00,,---,0.00,VWS V14.01,2013-03-30 06:50:00,
2013-03-30 02:55:00,41.7,31.6,30.13,WSW,253,0.0,2.0,67,0.00,,---,0.00,VWS V14.01,2013-03-30 06:55:00,
2013-03-30 03:00:00,41.7,31.2,30.13,WSW,253,0.0,0.0,66,0.00,,---,0.00,VWS V14.01,2013-03-30 07:00:00,
2013-03-30 03:05:00,41.4,31.6,30.13,WSW,253,0.0,1.0,68,0.00,,---,0.00,VWS V14.01,2013-03-30 07:05:00,
2013-03-30 03:10:00,41.1,31.4,30.13,WSW,253,1.0,2.0,68,0.00,,---,0.00,VWS V14.01,2013-03-30 07:10:00,
2013-03-30 03:16:00,40.9,31.2,30.14,WSW,253,0.0,4.0,68,0.00,,---,0.00,VWS V14.01,2013-03-30 07:16:00,
2013-03-30 03:21:00,40.8,31.4,30.14,WSW,253,0.0,1.0,69,0.00,,---,0.00,VWS V14.01,2013-03-30 07:21:00,
2013-03-30 03:26:00,40.6,32.0,30.14,WSW,253,0.0,2.0,71,0.00,,---,0.00,VWS V14.01,2013-03-30 07:26:00,
2013-03-30 03:31:00,40.3,32.3,30.14,WSW,253,0.0,2.0,73,0.00,,---,0.00,VWS V14.01,2013-03-30 07:31:00,
2013-03-30 03:36:00,40.0,33.1,30.14,WSW,257,0.0,4.0,76,0.00,,---,0.00,VWS V14.01,2013-03-30 07:36:00,
2013-03-30 03:41:00,39.8,32.9,30.14,WSW,257,1.0,2.0,76,0.00,,---,0.00,VWS V14.01,2013-03-30 07:41:00,
2013-03-30 03:47:00,40.2,31.6,30.13,WSW,257,3.0,3.0,71,0.00,,---,0.00,VWS V14.01,2013-03-30 07:47:00,
2013-03-30 03:52:00,40.5,31.1,30.13,WSW,257,0.0,2.0,69,0.00,,---,0.00,VWS V14.01,2013-03-30 07:52:00,
2013-03-30 03:57:00,40.5,31.1,30.13,WSW,257,0.0,2.0,69,0.00,,---,0.00,VWS V14.01,2013-03-30 07:57:00,
2013-03-30 04:02:00,40.4,30.7,30.12,WSW,257,0.0,1.0,68,0.00,,---,0.00,VWS V14.01,2013-03-30 08:02:00,
2013-03-30 04:07:00,40.2,30.1,30.12,NNW,340,0.0,3.0,67,0.00,,---,0.00,VWS V14.01,2013-03-30 08:07:00,
2013-03-30 04:12:00,40.4,30.3,30.12,NNW,340,0.0,1.0,67,0.00,,---,0.00,VWS V14.01,2013-03-30 08:12:00,
2013-03-30 04:17:00,40.3,29.9,30.12,NNW,338,0.0,3.0,66,0.00,,---,0.00,VWS V14.01,2013-03-30 08:17:00,
2013-03-30 04:22:00,40.2,29.8,30.12,NNW,338,0.0,2.0,66,0.00,,---,0.00,VWS V14.01,2013-03-30 08:22:00,
2013-03-30 04:28:00,40.1,29.7,30.12,NNW,338,1.0,3.0,66,0.00,,---,0.00,VWS V14.01,2013-03-30 08:28:00,
2013-03-30 04:33:00,40.5,29.7,30.12,NNW,338,1.0,3.0,65,0.00,,---,0.00,VWS V14.01,2013-03-30 08:33:00,
2013-03-30 04:37:00,40.8,30.0,30.12,NNW,338,0.0,3.0,65,0.00,,---,0.00,VWS V14.01,2013-03-30 08:37:00,
2013-03-30 04:43:00,41.0,29.8,30.12,NW,305,0.0,1.0,64,0.00,,---,0.00,VWS V14.01,2013-03-30 08:43:00,
2013-03-30 04:48:00,41.2,30.3,30.12,NW,305,0.0,1.0,65,0.00,,---,0.00,VWS V14.01,2013-03-30 08:48:00,
2013-03-30 04:53:00,41.1,30.6,30.12,NW,305,0.0,0.0,66,0.00,,---,0.00,VWS V14.01,2013-03-30 08:53:00,
2013-03-30 04:58:00,40.8,30.7,30.12,NW,305,0.0,1.0,67,0.00,,---,0.00,VWS V14.01,2013-03-30 08:58:00,
2013-03-30 05:03:00,40.9,30.4,30.13,NW,305,0.0,3.0,66,0.00,,---,0.00,VWS V14.01,2013-03-30 09:03:00,
2013-03-30 05:08:00,41.5,30.6,30.13,NW,305,0.0,3.0,65,0.00,,---,0.00,VWS V14.01,2013-03-30 09:08:00,
2013-03-30 05:13:00,42.0,30.7,30.13,NW,304,0.0,3.0,64,0.00,,---,0.00,VWS V14.01,2013-03-30 09:13:00,
2013-03-30 05:18:00,42.2,30.9,30.13,NNW,329,2.0,4.0,64,0.00,,---,0.00,VWS V14.01,2013-03-30 09:18:00,
2013-03-30 05:23:00,42.2,31.3,30.13,North,355,0.0,4.0,65,0.00,,---,0.00,VWS V14.01,2013-03-30 09:23:00,
2013-03-30 05:28:00,42.0,31.1,30.13,North,355,0.0,4.0,65,0.00,,---,0.00,VWS V14.01,2013-03-30 09:28:00,
2013-03-30 05:34:00,41.7,30.4,30.13,North,355,1.0,4.0,64,0.00,,---,0.00,VWS V14.01,2013-03-30 09:34:00,
2013-03-30 05:39:00,41.7,30.8,30.13,North,355,0.0,4.0,65,0.00,,---,0.00,VWS V14.01,2013-03-30 09:39:00,
2013-03-30 05:44:00,41.5,31.4,30.13,North,355,0.0,1.0,67,0.00,,---,0.00,VWS V14.01,2013-03-30 09:44:00,
2013-03-30 05:49:00,41.3,31.2,30.13,North,355,0.0,2.0,67,0.00,,---,0.00,VWS V14.01,2013-03-30 09:49:00,
2013-03-30 05:54:00,41.0,31.3,30.13,North,355,0.0,1.0,68,0.00,,---,0.00,VWS V14.01,2013-03-30 09:54:00,
2013-03-30 05:59:00,40.7,31.0,30.13,North,355,0.0,1.0,68,0.00,,---,0.00,VWS V14.01,2013-03-30 09:59:00,
2013-03-30 06:04:00,40.4,31.0,30.13,North,355,0.0,1.0,69,0.00,,---,0.00,VWS V14.01,2013-03-30 10:04:00,
2013-03-30 06:09:00,40.2,30.9,30.13,North,355,0.0,1.0,69,0.00,,---,0.00,VWS V14.01,2013-03-30 10:09:00,
2013-03-30 06:14:00,39.8,30.5,30.14,North,355,0.0,2.0,69,0.00,,---,0.00,VWS V14.01,2013-03-30 10:14:00,
2013-03-30 06:19:00,39.8,30.8,30.14,North,355,0.0,2.0,70,0.00,,---,0.00,VWS V14.01,2013-03-30 10:19:00,
2013-03-30 06:24:00,39.4,30.8,30.14,North,355,0.0,0.0,71,0.00,,---,0.00,VWS V14.01,2013-03-30 10:24:00,
2013-03-30 06:29:00,39.0,30.8,30.15,North,355,2.0,2.0,72,0.00,,---,0.00,VWS V14.01,2013-03-30 10:29:00,
2013-03-30 06:34:00,39.0,30.8,30.15,North,355,0.0,1.0,72,0.00,,---,0.00,VWS V14.01,2013-03-30 10:34:00,
2013-03-30 06:39:00,38.7,30.5,30.15,North,355,0.0,1.0,72,0.00,,---,0.00,VWS V14.01,2013-03-30 10:39:00,
2013-03-30 06:44:00,38.2,30.3,30.15,North,355,0.0,0.0,73,0.00,,---,0.00,VWS V14.01,2013-03-30 10:44:00,
2013-03-30 06:50:00,37.7,29.8,30.15,North,355,0.0,0.0,73,0.00,,---,0.00,VWS V14.01,2013-03-30 10:50:00,
2013-03-30 06:55:00,37.2,30.0,30.15,North,355,0.0,0.0,75,0.00,,---,0.00,VWS V14.01,2013-03-30 10:55:00,
2013-03-30 07:00:00,37.1,30.2,30.15,North,355,0.0,0.0,76,0.00,,---,0.00,VWS V14.01,2013-03-30 11:00:00,
2013-03-30 07:05:00,37.0,30.1,30.15,North,355,0.0,0.0,76,0.00,,---,0.00,VWS V14.01,2013-03-30 11:05:00,
2013-03-30 07:10:00,36.9,30.0,30.15,North,355,0.0,0.0,76,0.00,,---,0.00,VWS V14.01,2013-03-30 11:10:00,
2013-03-30 07:15:00,36.7,29.9,30.16,North,355,0.0,0.0,76,0.00,,---,0.00,VWS V14.01,2013-03-30 11:15:00,
2013-03-30 07:20:00,36.5,30.3,30.16,North,355,0.0,0.0,78,0.00,,---,0.00,VWS V14.01,2013-03-30 11:20:00,
2013-03-30 07:25:00,36.8,30.6,30.16,North,355,0.0,0.0,78,0.00,,---,0.00,VWS V14.01,2013-03-30 11:25:00,
2013-03-30 07:30:00,36.8,30.6,30.16,North,355,0.0,0.0,78,0.00,,---,0.00,VWS V14.01,2013-03-30 11:30:00,
2013-03-30 07:35:00,36.6,30.7,30.16,North,355,0.0,0.0,79,0.00,,---,0.00,VWS V14.01,2013-03-30 11:35:00,
2013-03-30 07:40:00,36.3,30.4,30.16,North,355,0.0,0.0,79,0.00,,---,0.00,VWS V14.01,2013-03-30 11:40:00,
2013-03-30 07:45:00,36.0,30.1,30.16,North,355,0.0,0.0,79,0.00,,---,0.00,VWS V14.01,2013-03-30 11:45:00,
2013-03-30 07:50:00,36.0,30.1,30.16,North,355,0.0,0.0,79,0.00,,---,0.00,VWS V14.01,2013-03-30 11:50:00,
2013-03-30 07:55:00,36.2,30.6,30.16,North,355,0.0,0.0,80,0.00,,---,0.00,VWS V14.01,2013-03-30 11:55:00,
2013-03-30 08:00:00,36.4,30.5,30.16,North,355,0.0,0.0,79,0.00,,---,0.00,VWS V14.01,2013-03-30 12:00:00,
2013-03-30 08:05:00,36.8,30.9,30.16,North,355,0.0,0.0,79,0.00,,---,0.00,VWS V14.01,2013-03-30 12:05:00,
2013-03-30 08:10:00,37.2,31.3,30.16,North,355,0.0,0.0,79,0.00,,---,0.00,VWS V14.01,2013-03-30 12:10:00,
2013-03-30 08:15:00,37.9,31.7,30.17,North,355,0.0,0.0,78,0.00,,---,0.00,VWS V14.01,2013-03-30 12:15:00,
2013-03-30 08:20:00,39.1,32.2,30.17,North,355,0.0,0.0,76,0.00,,---,0.00,VWS V14.01,2013-03-30 12:20:00,
2013-03-30 08:25:00,39.9,32.6,30.17,North,355,0.0,0.0,75,0.00,,---,0.00,VWS V14.01,2013-03-30 12:25:00,
2013-03-30 08:30:00,40.6,32.3,30.17,North,355,0.0,0.0,72,0.00,,---,0.00,VWS V14.01,2013-03-30 12:30:00,
2013-03-30 08:36:00,41.5,33.8,30.17,North,355,0.0,0.0,74,0.00,,---,0.00,VWS V14.01,2013-03-30 12:36:00,
2013-03-30 08:41:00,42.3,33.9,30.17,North,355,0.0,0.0,72,0.00,,---,0.00,VWS V14.01,2013-03-30 12:41:00,
2013-03-30 08:46:00,42.9,33.4,30.17,North,355,0.0,0.0,69,0.00,,---,0.00,VWS V14.01,2013-03-30 12:46:00,
2013-03-30 08:51:00,43.6,33.4,30.17,North,355,0.0,0.0,67,0.00,,---,0.00,VWS V14.01,2013-03-30 12:51:00,
2013-03-30 08:56:00,44.5,33.5,30.17,North,355,0.0,0.0,65,0.00,,---,0.00,VWS V14.01,2013-03-30 12:56:00,
2013-03-30 09:01:00,46.0,34.5,30.18,North,355,0.0,0.0,64,0.00,,---,0.00,VWS V14.01,2013-03-30 13:01:00,
2013-03-30 09:06:00,47.2,32.8,30.18,North,355,1.0,4.0,57,0.00,,---,0.00,VWS V14.01,2013-03-30 13:06:00,
2013-03-30 09:11:00,47.6,32.7,30.18,North,355,2.0,4.0,56,0.00,,---,0.00,VWS V14.01,2013-03-30 13:11:00,
2013-03-30 09:17:00,48.3,33.8,30.18,North,360,1.0,4.0,57,0.00,,---,0.00,VWS V14.01,2013-03-30 13:17:00,
2013-03-30 09:22:00,48.5,32.6,30.18,NNE,30,0.0,5.0,54,0.00,,---,0.00,VWS V14.01,2013-03-30 13:22:00,
2013-03-30 09:27:00,49.4,33.9,30.18,ENE,66,2.0,5.0,55,0.00,,---,0.00,VWS V14.01,2013-03-30 13:27:00,
2013-03-30 09:32:00,49.7,32.8,30.18,NNE,26,3.0,5.0,52,0.00,,---,0.00,VWS V14.01,2013-03-30 13:32:00,
2013-03-30 09:37:00,50.3,32.9,30.18,NNE,30,2.0,6.0,51,0.00,,---,0.00,VWS V14.01,2013-03-30 13:37:00,
2013-03-30 09:42:00,50.4,33.9,30.18,NNE,19,3.0,3.0,53,0.00,,---,0.00,VWS V14.01,2013-03-30 13:42:00,
2013-03-30 09:47:00,51.0,34.0,30.18,ENE,60,2.0,4.0,52,0.00,,---,0.00,VWS V14.01,2013-03-30 13:47:00,
2013-03-30 09:52:00,51.6,33.6,30.18,NE,37,3.0,6.0,50,0.00,,---,0.00,VWS V14.01,2013-03-30 13:52:00,
2013-03-30 09:57:00,52.3,32.7,30.18,NE,34,0.0,6.0,47,0.00,,---,0.00,VWS V14.01,2013-03-30 13:57:00,
2013-03-30 10:02:00,52.9,32.7,30.17,ENE,74,1.0,3.0,46,0.00,,---,0.00,VWS V14.01,2013-03-30 14:02:00,
2013-03-30 10:08:00,54.0,33.2,30.17,NNE,32,3.0,5.0,45,0.00,,---,0.00,VWS V14.01,2013-03-30 14:08:00,
2013-03-30 10:13:00,54.8,32.2,30.17,NE,34,1.0,7.0,42,0.00,,---,0.00,VWS V14.01,2013-03-30 14:13:00,
2013-03-30 10:18:00,54.9,30.4,30.16,NNE,32,6.0,7.0,39,0.00,,---,0.00,VWS V14.01,2013-03-30 14:18:00,
2013-03-30 10:23:00,55.2,31.9,30.16,North,11,4.0,5.0,41,0.00,,---,0.00,VWS V14.01,2013-03-30 14:23:00,
2013-03-30 10:28:00,55.1,30.0,30.16,NNE,33,2.0,7.0,38,0.00,,---,0.00,VWS V14.01,2013-03-30 14:28:00,
2013-03-30 10:33:00,56.3,31.7,30.16,East,84,5.0,7.0,39,0.00,,---,0.00,VWS V14.01,2013-03-30 14:33:00,
2013-03-30 10:38:00,56.4,31.1,30.16,ENE,59,0.0,7.0,38,0.00,,---,0.00,VWS V14.01,2013-03-30 14:38:00,
2013-03-30 10:43:00,56.9,30.2,30.16,ENE,61,6.0,9.0,36,0.00,,---,0.00,VWS V14.01,2013-03-30 14:43:00,
2013-03-30 10:48:00,57.3,31.9,30.16,East,86,2.0,9.0,38,0.00,,---,0.00,VWS V14.01,2013-03-30 14:48:00,
2013-03-30 10:53:00,57.3,29.9,30.16,NNE,15,3.0,10.0,35,0.00,,---,0.00,VWS V14.01,2013-03-30 14:53:00,
2013-03-30 10:58:00,57.6,29.5,30.16,East,87,3.0,10.0,34,0.00,,---,0.00,VWS V14.01,2013-03-30 14:58:00,
2013-03-30 11:03:00,57.6,28.7,30.15,ESE,108,2.0,11.0,33,0.00,,---,0.00,VWS V14.01,2013-03-30 15:03:00,
2013-03-30 11:09:00,56.8,30.1,30.15,SE,132,1.0,11.0,36,0.00,,---,0.00,VWS V14.01,2013-03-30 15:09:00,
2013-03-30 11:14:00,57.7,31.0,30.15,ENE,76,0.0,7.0,36,0.00,,---,0.00,VWS V14.01,2013-03-30 15:14:00,
2013-03-30 11:19:00,58.2,30.7,30.16,NNE,13,3.0,10.0,35,0.00,,---,0.00,VWS V14.01,2013-03-30 15:19:00,
2013-03-30 11:24:00,58.1,30.6,30.16,NE,34,2.0,9.0,35,0.00,,---,0.00,VWS V14.01,2013-03-30 15:24:00,
2013-03-30 11:29:00,59.0,30.7,30.14,ENE,57,6.0,10.0,34,0.00,,---,0.00,VWS V14.01,2013-03-30 15:29:00,
2013-03-30 11:34:00,58.4,30.2,30.14,ENE,63,2.0,8.0,34,0.00,,---,0.00,VWS V14.01,2013-03-30 15:34:00,
2013-03-30 11:39:00,58.2,29.3,30.14,East,93,1.0,10.0,33,0.00,,---,0.00,VWS V14.01,2013-03-30 15:39:00,
2013-03-30 11:44:00,58.8,31.9,30.13,ENE,57,3.0,6.0,36,0.00,,---,0.00,VWS V14.01,2013-03-30 15:44:00,
2013-03-30 11:49:00,59.8,29.9,30.13,ENE,78,5.0,12.0,32,0.00,,---,0.00,VWS V14.01,2013-03-30 15:49:00,
2013-03-30 11:54:00,60.4,30.4,30.13,NE,40,2.0,9.0,32,0.00,,---,0.00,VWS V14.01,2013-03-30 15:54:00,
2013-03-30 12:00:00,60.5,31.3,30.13,ENE,77,0.0,9.0,33,0.00,,---,0.00,VWS V14.01,2013-03-30 16:00:00,
2013-03-30 12:05:00,60.0,30.1,30.13,NE,55,2.0,8.0,32,0.00,,---,0.00,VWS V14.01,2013-03-30 16:05:00,
2013-03-30 12:10:00,59.8,29.9,30.13,East,100,4.0,4.0,32,0.00,,---,0.00,VWS V14.01,2013-03-30 16:10:00,
2013-03-30 12:15:00,59.1,27.7,30.13,ESE,105,5.0,12.0,30,0.00,,---,0.00,VWS V14.01,2013-03-30 16:15:00,
2013-03-30 12:20:00,60.3,28.8,30.13,ESE,119,6.0,7.0,30,0.00,,---,0.00,VWS V14.01,2013-03-30 16:20:00,
2013-03-30 12:25:00,60.0,28.5,30.13,SE,132,4.0,7.0,30,0.00,,---,0.00,VWS V14.01,2013-03-30 16:25:00,
2013-03-30 12:30:00,59.9,32.2,30.12,South,173,4.0,5.0,35,0.00,,---,0.00,VWS V14.01,2013-03-30 16:30:00,
2013-03-30 12:35:00,59.9,30.0,30.12,South,181,3.0,7.0,32,0.00,,---,0.00,VWS V14.01,2013-03-30 16:35:00,
2013-03-30 12:40:00,60.0,29.3,30.12,SSW,195,1.0,4.0,31,0.00,,---,0.00,VWS V14.01,2013-03-30 16:40:00,
2013-03-30 12:45:00,60.7,30.7,30.11,NE,44,5.0,5.0,32,0.00,,---,0.00,VWS V14.01,2013-03-30 16:45:00,
2013-03-30 12:50:00,61.5,29.8,30.11,NE,48,1.0,1.0,30,0.00,,---,0.00,VWS V14.01,2013-03-30 16:50:00,
2013-03-30 12:55:00,61.0,29.4,30.11,East,84,1.0,6.0,30,0.00,,---,0.00,VWS V14.01,2013-03-30 16:55:00,
2013-03-30 13:01:00,61.4,30.5,30.11,SSW,204,1.0,4.0,31,0.00,,---,0.00,VWS V14.01,2013-03-30 17:01:00,
2013-03-30 13:06:00,60.9,30.1,30.11,South,171,2.0,9.0,31,0.00,,---,0.00,VWS V14.01,2013-03-30 17:06:00,
2013-03-30 13:12:00,60.9,30.1,30.11,SSE,164,2.0,7.0,31,0.00,,---,0.00,VWS V14.01,2013-03-30 17:12:00,
2013-03-30 13:17:00,60.7,29.9,30.10,ESE,115,1.0,7.0,31,0.00,,---,0.00,VWS V14.01,2013-03-30 17:17:00,
2013-03-30 13:22:00,61.3,29.6,30.10,WSW,244,3.0,7.0,30,0.00,,---,0.00,VWS V14.01,2013-03-30 17:22:00,
2013-03-30 13:27:00,61.5,29.8,30.10,SE,138,3.0,7.0,30,0.00,,---,0.00,VWS V14.01,2013-03-30 17:27:00,
2013-03-30 13:32:00,60.8,28.4,30.10,East,88,1.0,9.0,29,0.00,,---,0.00,VWS V14.01,2013-03-30 17:32:00,
2013-03-30 13:37:00,61.6,33.7,30.10,WSW,250,4.0,9.0,35,0.00,,---,0.00,VWS V14.01,2013-03-30 17:37:00,
2013-03-30 13:42:00,62.5,30.7,30.10,North,5,1.0,4.0,30,0.00,,---,0.00,VWS V14.01,2013-03-30 17:42:00,
2013-03-30 13:48:00,63.8,33.4,30.08,NNW,344,0.0,4.0,32,0.00,,---,0.00,VWS V14.01,2013-03-30 17:48:00,
2013-03-30 13:53:00,63.3,29.7,30.08,NE,51,2.0,5.0,28,0.00,,---,0.00,VWS V14.01,2013-03-30 17:53:00,
2013-03-30 13:58:00,63.3,31.4,30.08,WNW,291,0.0,5.0,30,0.00,,---,0.00,VWS V14.01,2013-03-30 17:58:00,
2013-03-30 14:03:00,63.2,31.3,30.08,North,5,4.0,5.0,30,0.00,,---,0.00,VWS V14.01,2013-03-30 18:03:00,
2013-03-30 14:08:00,63.5,29.8,30.08,North,10,3.0,5.0,28,0.00,,---,0.00,VWS V14.01,2013-03-30 18:08:00,
2013-03-30 14:13:00,63.5,29.8,30.08,North,360,2.0,4.0,28,0.00,,---,0.00,VWS V14.01,2013-03-30 18:13:00,
2013-03-30 14:18:00,62.8,29.2,30.07,SSW,209,1.0,5.0,28,0.00,,---,0.00,VWS V14.01,2013-03-30 18:18:00,
2013-03-30 14:23:00,63.7,34.1,30.07,East,94,4.0,10.0,33,0.00,,---,0.00,VWS V14.01,2013-03-30 18:23:00,
2013-03-30 14:28:00,63.0,29.4,30.07,SE,134,4.0,12.0,28,0.00,,---,0.00,VWS V14.01,2013-03-30 18:28:00,
2013-03-30 14:33:00,62.2,31.2,30.06,SSE,155,1.0,4.0,31,0.00,,---,0.00,VWS V14.01,2013-03-30 18:33:00,
2013-03-30 14:38:00,62.8,30.9,30.06,SSE,159,4.0,10.0,30,0.00,,---,0.00,VWS V14.01,2013-03-30 18:38:00,
2013-03-30 14:43:00,63.0,34.2,30.06,WSW,246,3.0,5.0,34,0.00,,---,0.00,VWS V14.01,2013-03-30 18:43:00,
2013-03-30 14:48:00,63.0,31.1,30.06,NW,314,1.0,5.0,30,0.00,,---,0.00,VWS V14.01,2013-03-30 18:48:00,
2013-03-30 14:53:00,62.8,30.1,30.06,East,100,2.0,7.0,29,0.00,,---,0.00,VWS V14.01,2013-03-30 18:53:00,
2013-03-30 14:58:00,63.2,32.1,30.06,SSW,207,5.0,7.0,31,0.00,,---,0.00,VWS V14.01,2013-03-30 18:58:00,
2013-03-30 15:03:00,63.4,31.5,30.05,ESE,119,1.0,8.0,30,0.00,,---,0.00,VWS V14.01,2013-03-30 19:03:00,
2013-03-30 15:09:00,63.6,31.6,30.05,SSE,164,4.0,8.0,30,0.00,,---,0.00,VWS V14.01,2013-03-30 19:09:00,
2013-03-30 15:14:00,63.0,31.1,30.05,East,96,0.0,6.0,30,0.00,,---,0.00,VWS V14.01,2013-03-30 19:14:00,
2013-03-30 15:19:00,63.7,31.7,30.05,East,97,3.0,8.0,30,0.00,,---,0.00,VWS V14.01,2013-03-30 19:19:00,
2013-03-30 15:24:00,63.6,33.2,30.05,ESE,114,3.0,8.0,32,0.00,,---,0.00,VWS V14.01,2013-03-30 19:24:00,
2013-03-30 15:29:00,63.6,32.4,30.04,SE,140,3.0,8.0,31,0.00,,---,0.00,VWS V14.01,2013-03-30 19:29:00,
2013-03-30 15:34:00,63.7,32.5,30.04,SW,215,5.0,10.0,31,0.00,,---,0.00,VWS V14.01,2013-03-30 19:34:00,
2013-03-30 15:39:00,63.6,33.2,30.04,SSE,164,6.0,10.0,32,0.00,,---,0.00,VWS V14.01,2013-03-30 19:39:00,
2013-03-30 15:44:00,64.5,35.5,30.03,SW,228,5.0,7.0,34,0.00,,---,0.00,VWS V14.01,2013-03-30 19:44:00,
2013-03-30 15:49:00,63.3,32.2,30.03,SW,229,6.0,9.0,31,0.00,,---,0.00,VWS V14.01,2013-03-30 19:49:00,
2013-03-30 15:54:00,62.9,32.6,30.03,SSW,211,5.0,9.0,32,0.00,,---,0.00,VWS V14.01,2013-03-30 19:54:00,
2013-03-30 15:59:00,63.8,31.8,30.03,WSW,238,6.0,10.0,30,0.00,,---,0.00,VWS V14.01,2013-03-30 19:59:00,
2013-03-30 16:04:00,64.2,33.0,30.03,South,173,7.0,11.0,31,0.00,,---,0.00,VWS V14.01,2013-03-30 20:04:00,
2013-03-30 16:09:00,63.3,32.2,30.03,SSE,161,1.0,11.0,31,0.00,,---,0.00,VWS V14.01,2013-03-30 20:09:00,
2013-03-30 16:14:00,64.5,34.0,30.03,South,169,2.0,4.0,32,0.00,,---,0.00,VWS V14.01,2013-03-30 20:14:00,
2013-03-30 16:19:00,64.2,33.0,30.03,WNW,290,4.0,6.0,31,0.00,,---,0.00,VWS V14.01,2013-03-30 20:19:00,
2013-03-30 16:25:00,64.3,32.2,30.03,SW,219,3.0,8.0,30,0.00,,---,0.00,VWS V14.01,2013-03-30 20:25:00,
2013-03-30 16:30:00,63.9,31.9,30.02,WSW,254,2.0,8.0,30,0.00,,---,0.00,VWS V14.01,2013-03-30 20:30:00,
2013-03-30 16:35:00,63.5,32.3,30.02,SW,236,3.0,11.0,31,0.00,,---,0.00,VWS V14.01,2013-03-30 20:35:00,
2013-03-30 16:40:00,62.9,35.6,30.02,SW,234,0.0,1.0,36,0.00,,---,0.00,VWS V14.01,2013-03-30 20:40:00,
2013-03-30 16:45:00,63.7,34.1,30.02,West,275,4.0,11.0,33,0.00,,---,0.00,VWS V14.01,2013-03-30 20:45:00,
2013-03-30 16:50:00,63.0,32.7,30.02,SW,234,1.0,3.0,32,0.00,,---,0.00,VWS V14.01,2013-03-30 20:50:00,
2013-03-30 16:55:00,62.9,33.4,30.02,WNW,297,2.0,10.0,33,0.00,,---,0.00,VWS V14.01,2013-03-30 20:55:00,
2013-03-30 17:00:00,63.2,35.1,30.01,WSW,243,4.0,6.0,35,0.00,,---,0.00,VWS V14.01,2013-03-30 21:00:00,
2013-03-30 17:05:00,63.2,34.4,30.01,WNW,290,2.0,6.0,34,0.00,,---,0.00,VWS V14.01,2013-03-30 21:05:00,
2013-03-30 17:10:00,63.8,34.2,30.01,SSW,213,5.0,6.0,33,0.00,,---,0.00,VWS V14.01,2013-03-30 21:10:00,
2013-03-30 17:15:00,63.9,34.3,30.01,South,182,4.0,13.0,33,0.00,,---,0.00,VWS V14.01,2013-03-30 21:15:00,
2013-03-30 17:21:00,63.3,34.5,30.01,SW,214,3.0,5.0,34,0.00,,---,0.00,VWS V14.01,2013-03-30 21:21:00,
2013-03-30 17:26:00,63.1,34.3,30.01,SSW,202,4.0,7.0,34,0.00,,---,0.00,VWS V14.01,2013-03-30 21:26:00,
2013-03-30 17:31:00,62.7,36.1,30.01,SW,220,3.0,4.0,37,0.00,,---,0.00,VWS V14.01,2013-03-30 21:31:00,
2013-03-30 17:36:00,63.0,36.3,30.01,SSW,203,5.0,6.0,37,0.00,,---,0.00,VWS V14.01,2013-03-30 21:36:00,
2013-03-30 17:41:00,62.9,35.6,30.01,South,188,5.0,12.0,36,0.00,,---,0.00,VWS V14.01,2013-03-30 21:41:00,
2013-03-30 17:46:00,62.6,34.6,30.01,SSW,204,3.0,12.0,35,0.00,,---,0.00,VWS V14.01,2013-03-30 21:46:00,
2013-03-30 17:51:00,62.3,34.3,30.01,SSE,162,3.0,6.0,35,0.00,,---,0.00,VWS V14.01,2013-03-30 21:51:00,
2013-03-30 17:56:00,62.1,35.5,30.01,West,265,1.0,7.0,37,0.00,,---,0.00,VWS V14.01,2013-03-30 21:56:00,
2013-03-30 18:01:00,61.9,34.0,30.01,SSW,198,4.0,7.0,35,0.00,,---,0.00,VWS V14.01,2013-03-30 22:01:00,
2013-03-30 18:06:00,61.9,34.7,30.01,WSW,238,0.0,9.0,36,0.00,,---,0.00,VWS V14.01,2013-03-30 22:06:00,
2013-03-30 18:11:00,62.0,34.1,30.01,South,190,5.0,6.0,35,0.00,,---,0.00,VWS V14.01,2013-03-30 22:11:00,
2013-03-30 18:17:00,61.9,34.0,30.01,SSW,196,3.0,11.0,35,0.00,,---,0.00,VWS V14.01,2013-03-30 22:17:00,
2013-03-30 18:22:00,61.7,34.5,30.01,SW,219,5.0,6.0,36,0.00,,---,0.00,VWS V14.01,2013-03-30 22:22:00,
2013-03-30 18:27:00,61.5,33.6,30.01,SW,220,6.0,10.0,35,0.00,,---,0.00,VWS V14.01,2013-03-30 22:27:00,
2013-03-30 18:32:00,61.3,33.4,30.01,SSW,192,3.0,9.0,35,0.00,,---,0.00,VWS V14.01,2013-03-30 22:32:00,
2013-03-30 18:37:00,61.1,34.7,30.01,SW,215,0.0,9.0,37,0.00,,---,0.00,VWS V14.01,2013-03-30 22:37:00,
2013-03-30 18:42:00,60.7,35.0,30.01,SW,235,3.0,6.0,38,0.00,,---,0.00,VWS V14.01,2013-03-30 22:42:00,
2013-03-30 18:47:00,60.5,34.8,30.02,NW,309,4.0,6.0,38,0.00,,---,0.00,VWS V14.01,2013-03-30 22:47:00,
2013-03-30 18:52:00,60.3,34.6,30.02,South,180,1.0,5.0,38,0.00,,---,0.00,VWS V14.01,2013-03-30 22:52:00,
2013-03-30 18:57:00,60.3,34.6,30.02,South,187,1.0,7.0,38,0.00,,---,0.00,VWS V14.01,2013-03-30 22:57:00,
2013-03-30 19:02:00,60.0,35.6,30.01,SW,227,3.0,3.0,40,0.00,,---,0.00,VWS V14.01,2013-03-30 23:02:00,
2013-03-30 19:07:00,59.9,34.9,30.01,SSW,212,2.0,4.0,39,0.00,,---,0.00,VWS V14.01,2013-03-30 23:07:00,
2013-03-30 19:13:00,59.7,35.4,30.01,SSW,210,2.0,3.0,40,0.00,,---,0.00,VWS V14.01,2013-03-30 23:13:00,
2013-03-30 19:17:00,59.5,34.5,30.02,SSW,210,1.0,4.0,39,0.00,,---,0.00,VWS V14.01,2013-03-30 23:17:00,
2013-03-30 19:23:00,59.1,34.8,30.02,SSW,210,0.0,2.0,40,0.00,,---,0.00,VWS V14.01,2013-03-30 23:23:00,
2013-03-30 19:28:00,58.7,35.1,30.02,SSW,210,0.0,2.0,41,0.00,,---,0.00,VWS V14.01,2013-03-30 23:28:00,
2013-03-30 19:33:00,58.4,34.8,30.02,SSW,210,0.0,1.0,41,0.00,,---,0.00,VWS V14.01,2013-03-30 23:33:00,
2013-03-30 19:38:00,58.0,35.1,30.02,SSW,210,0.0,1.0,42,0.00,,---,0.00,VWS V14.01,2013-03-30 23:38:00,
2013-03-30 19:43:00,57.4,35.7,30.02,SSW,210,0.0,0.0,44,0.00,,---,0.00,VWS V14.01,2013-03-30 23:43:00,
2013-03-30 19:48:00,56.6,35.5,30.02,SSW,210,0.0,0.0,45,0.00,,---,0.00,VWS V14.01,2013-03-30 23:48:00,
2013-03-30 19:53:00,56.2,35.7,30.02,SSW,210,0.0,0.0,46,0.00,,---,0.00,VWS V14.01,2013-03-30 23:53:00,
2013-03-30 19:58:00,55.7,35.3,30.02,SSW,210,0.0,0.0,46,0.00,,---,0.00,VWS V14.01,2013-03-30 23:58:00,
2013-03-30 20:03:00,55.4,35.5,30.01,SSW,210,0.0,0.0,47,0.00,,---,0.00,VWS V14.01,2013-03-31 00:03:00,
2013-03-30 20:08:00,55.2,35.3,30.01,SSW,210,0.0,0.0,47,0.00,,---,0.00,VWS V14.01,2013-03-31 00:08:00,
2013-03-30 20:13:00,55.0,35.2,30.01,SSW,210,0.0,0.0,47,0.00,,---,0.00,VWS V14.01,2013-03-31 00:13:00,
2013-03-30 20:18:00,54.7,34.9,30.02,SSW,210,0.0,0.0,47,0.00,,---,0.00,VWS V14.01,2013-03-31 00:18:00,
2013-03-30 20:23:00,54.6,34.8,30.02,SSW,210,0.0,0.0,47,0.00,,---,0.00,VWS V14.01,2013-03-31 00:23:00,
2013-03-30 20:28:00,54.4,35.7,30.02,SSW,210,0.0,0.0,49,0.00,,---,0.00,VWS V14.01,2013-03-31 00:28:00,
2013-03-30 20:34:00,54.4,35.1,30.02,SSW,210,0.0,0.0,48,0.00,,---,0.00,VWS V14.01,2013-03-31 00:34:00,
2013-03-30 20:39:00,54.1,35.4,30.02,SSW,210,0.0,0.0,49,0.00,,---,0.00,VWS V14.01,2013-03-31 00:39:00,
2013-03-30 20:44:00,53.7,35.5,30.02,SSW,210,0.0,1.0,50,0.00,,---,0.00,VWS V14.01,2013-03-31 00:44:00,
2013-03-30 20:49:00,53.4,36.2,30.03,SSW,210,0.0,1.0,52,0.00,,---,0.00,VWS V14.01,2013-03-31 00:49:00,
2013-03-30 20:54:00,53.2,37.0,30.03,SSW,210,0.0,0.0,54,0.00,,---,0.00,VWS V14.01,2013-03-31 00:54:00,
2013-03-30 20:59:00,53.3,36.6,30.02,SSW,210,0.0,0.0,53,0.00,,---,0.00,VWS V14.01,2013-03-31 00:59:00,
2013-03-30 21:04:00,53.3,36.6,30.02,SSW,210,0.0,0.0,53,0.00,,---,0.00,VWS V14.01,2013-03-31 01:04:00,
2013-03-30 21:09:00,53.3,36.1,30.02,SSW,210,0.0,0.0,52,0.00,,---,0.00,VWS V14.01,2013-03-31 01:09:00,
2013-03-30 21:14:00,53.4,37.2,30.02,SSW,210,0.0,2.0,54,0.00,,---,0.00,VWS V14.01,2013-03-31 01:14:00,
2013-03-30 21:19:00,53.3,37.1,30.02,SSW,210,0.0,2.0,54,0.00,,---,0.00,VWS V14.01,2013-03-31 01:19:00,
2013-03-30 21:24:00,53.2,36.0,30.02,SSW,210,0.0,0.0,52,0.00,,---,0.00,VWS V14.01,2013-03-31 01:24:00,
2013-03-30 21:29:00,53.2,36.0,30.02,SSW,210,0.0,0.0,52,0.00,,---,0.00,VWS V14.01,2013-03-31 01:29:00,
2013-03-30 21:34:00,53.3,36.6,30.02,SSW,210,0.0,0.0,53,0.00,,---,0.00,VWS V14.01,2013-03-31 01:34:00,
2013-03-30 21:39:00,53.2,37.0,30.02,SSW,210,0.0,0.0,54,0.00,,---,0.00,VWS V14.01,2013-03-31 01:39:00,
2013-03-30 21:44:00,53.2,36.5,30.02,SSW,210,0.0,0.0,53,0.00,,---,0.00,VWS V14.01,2013-03-31 01:44:00,
2013-03-30 21:49:00,53.3,37.1,30.02,SSW,210,0.0,0.0,54,0.00,,---,0.00,VWS V14.01,2013-03-31 01:49:00,
2013-03-30 21:55:00,53.5,37.3,30.02,SSW,210,0.0,0.0,54,0.00,,---,0.00,VWS V14.01,2013-03-31 01:55:00,
2013-03-30 22:00:00,53.4,37.2,30.02,SSW,210,0.0,0.0,54,0.00,,---,0.00,VWS V14.01,2013-03-31 02:00:00,
2013-03-30 22:05:00,53.2,37.9,30.02,SSW,210,0.0,0.0,56,0.00,,---,0.00,VWS V14.01,2013-03-31 02:05:00,
2013-03-30 22:10:00,52.7,37.5,30.02,SSW,210,0.0,0.0,56,0.00,,---,0.00,VWS V14.01,2013-03-31 02:10:00,
2013-03-30 22:15:00,52.7,37.9,30.02,SSW,210,0.0,2.0,57,0.00,,---,0.00,VWS V14.01,2013-03-31 02:15:00,
2013-03-30 22:20:00,52.8,37.5,30.02,SSW,210,0.0,0.0,56,0.00,,---,0.00,VWS V14.01,2013-03-31 02:20:00,
2013-03-30 22:25:00,52.7,38.3,30.02,SSW,210,0.0,0.0,58,0.00,,---,0.00,VWS V14.01,2013-03-31 02:25:00,
2013-03-30 22:30:00,52.4,38.1,30.02,SSW,210,0.0,0.0,58,0.00,,---,0.00,VWS V14.01,2013-03-31 02:30:00,
2013-03-30 22:35:00,52.2,37.9,30.02,SSW,210,0.0,0.0,58,0.00,,---,0.00,VWS V14.01,2013-03-31 02:35:00,
2013-03-30 22:40:00,51.8,37.9,30.02,SSW,210,0.0,0.0,59,0.00,,---,0.00,VWS V14.01,2013-03-31 02:40:00,
2013-03-30 22:45:00,51.5,38.1,30.02,SSW,210,0.0,0.0,60,0.00,,---,0.00,VWS V14.01,2013-03-31 02:45:00,
2013-03-30 22:50:00,51.4,38.0,30.02,SSW,210,0.0,0.0,60,0.00,,---,0.00,VWS V14.01,2013-03-31 02:50:00,
2013-03-30 22:56:00,51.3,38.3,30.02,SSW,210,0.0,0.0,61,0.00,,---,0.00,VWS V14.01,2013-03-31 02:56:00,
2013-03-30 23:01:00,51.3,37.9,30.01,SSW,210,0.0,0.0,60,0.00,,---,0.00,VWS V14.01,2013-03-31 03:01:00,
2013-03-30 23:06:00,51.2,38.2,30.01,South,172,0.0,4.0,61,0.00,,---,0.00,VWS V14.01,2013-03-31 03:06:00,
2013-03-30 23:11:00,51.3,38.3,30.01,South,172,0.0,0.0,61,0.00,,---,0.00,VWS V14.01,2013-03-31 03:11:00,
2013-03-30 23:16:00,51.5,38.5,30.01,South,173,0.0,2.0,61,0.00,,---,0.00,VWS V14.01,2013-03-31 03:16:00,
2013-03-30 23:22:00,51.4,38.8,30.01,South,173,0.0,0.0,62,0.00,,---,0.00,VWS V14.01,2013-03-31 03:22:00,
2013-03-30 23:27:00,51.2,38.6,30.01,South,173,0.0,1.0,62,0.00,,---,0.00,VWS V14.01,2013-03-31 03:27:00,
2013-03-30 23:32:00,51.7,39.1,30.01,South,173,0.0,0.0,62,0.00,,---,0.00,VWS V14.01,2013-03-31 03:32:00,
2013-03-30 23:37:00,51.8,39.2,30.01,South,173,0.0,0.0,62,0.00,,---,0.00,VWS V14.01,2013-03-31 03:37:00,
2013-03-30 23:42:00,52.1,39.5,30.01,South,173,0.0,1.0,62,0.00,,---,0.00,VWS V14.01,2013-03-31 03:42:00,
2013-03-30 23:47:00,52.4,39.4,30.01,South,173,0.0,1.0,61,0.00,,---,0.00,VWS V14.01,2013-03-31 03:47:00,
2013-03-30 23:52:00,52.2,39.2,30.01,South,173,0.0,0.0,61,0.00,,---,0.00,VWS V14.01,2013-03-31 03:52:00,
2013-03-30 23:57:00,52.3,39.7,30.01,South,173,0.0,0.0,62,0.00,,---,0.00,VWS V14.01,2013-03-31 03:57:00,